Portada
METAR-TAF:

METAR-TAF

Aeroports :

L'Havana, Cuba

latitud: 22-59N, longitud: 082-24W, altitud: 59 m

Observació

L'informe es va fer fa 26 minuts, a les 17:55 UTC
Vent 9 kt del Nord-Est, variant entre Nord/Nord-Oest i Est
Temperatura 31°C
Humitat 43%
Pressió 1013 hPa
Visibilitat: 9000 m
Escasses núvols a una alçada de 3000 ft

METAR: MUHA 031755Z 04009KT 330V080 9000 FEW030 31/17 Q1013

Hora: 14:21 (18:21 UTC)

Pronòstic

L'informe es va fer fa 1 hora i 21 minuts, a les 17:00 UTC
Pronòstic vàlid del 03 a les 18 UTC al 04 a les 18 UTC
Vent 8 kt del Est/Nord-Est
Visibilitat: 9000 m
Escasses núvols a una alçada de 3000 ft

TAF: MUHA 031700Z 0318/0418 06008KT 9000 FEW030

Observacions i pronòstics meteorològics de més de 4000 aeroports (METAR i TAF).

Les estacions disponibles són els punts grocs i vermells al mapa.

Posi el ratolí al punt desitjat per veure el nom de l'estació.

Feu clic per veure les observacions i els pronòstics meteorològics.

Per canviar el mapa: feu clic els botons verds amb una creu de color negre per apropar; al botó verd amb un guió per allunyar la imatge; o en les fletxes verdes per a mapes adjacents.


METAR-TAF: